createdAt,value
2019-03-05T00:01:07.048Z,0.70
2019-03-05T00:03:36.628Z,0.90
2019-03-05T00:06:05.527Z,0.80
2019-03-05T00:08:34.605Z,0.80
2019-03-05T00:11:03.426Z,1.00
2019-03-05T00:13:32.192Z,1.00
2019-03-05T00:16:01.904Z,1.10
2019-03-05T00:18:30.869Z,1.00
2019-03-05T00:20:59.831Z,1.33
2019-03-05T00:23:50.440Z,1.30
2019-03-05T00:26:28.026Z,1.40
2019-03-05T00:28:59.940Z,1.20
2019-03-05T00:32:05.796Z,1.50
2019-03-05T00:34:46.577Z,1.50
2019-03-05T00:37:30.568Z,1.77
2019-03-05T00:40:26.546Z,1.83
2019-03-05T00:43:21.915Z,1.60
2019-03-05T00:45:58.181Z,1.70
2019-03-05T00:48:38.818Z,1.60
2019-03-05T00:51:24.930Z,1.70
2019-03-05T00:54:15.749Z,2.07
2019-03-05T00:57:08.570Z,1.47
2019-03-05T00:59:47.258Z,1.40
2019-03-05T01:02:31.519Z,1.77
2019-03-05T01:05:13.724Z,1.80
2019-03-05T01:07:43.094Z,1.70
2019-03-05T01:10:14.516Z,1.63
2019-03-05T01:12:43.594Z,1.60
2019-03-05T01:15:12.809Z,1.87
2019-03-05T01:17:41.757Z,1.50
2019-03-05T01:20:12.198Z,1.90
2019-03-05T01:22:42.071Z,2.07
2019-03-05T01:25:28.476Z,2.00
2019-03-05T01:27:57.924Z,2.40
2019-03-05T01:30:34.607Z,2.43
2019-03-05T01:33:05.179Z,2.83
2019-03-05T01:35:41.969Z,2.83
2019-03-05T01:38:11.043Z,2.80
2019-03-05T01:40:40.486Z,2.90
2019-03-05T01:43:09.598Z,2.63
2019-03-05T01:45:38.771Z,2.90
2019-03-05T01:48:08.119Z,3.07
2019-03-05T01:50:37.198Z,3.17
2019-03-05T01:53:06.636Z,2.70
2019-03-05T01:55:35.690Z,2.93
2019-03-05T01:58:04.689Z,2.57
2019-03-05T02:00:34.803Z,2.87
2019-03-05T02:03:04.119Z,2.70
2019-03-05T02:05:33.078Z,2.70
2019-03-05T02:08:03.158Z,2.90
2019-03-05T02:10:32.275Z,2.83
2019-03-05T02:13:01.395Z,3.10
2019-03-05T02:15:31.057Z,2.37
2019-03-05T02:18:00.068Z,2.80
2019-03-05T02:20:29.667Z,2.10
2019-03-05T02:23:04.719Z,2.97
2019-03-05T02:25:39.163Z,2.60
2019-03-05T02:28:29.236Z,2.80
2019-03-05T02:31:10.006Z,2.60
2019-03-05T02:33:48.532Z,2.33
2019-03-05T02:36:44.792Z,2.60
2019-03-05T02:39:25.997Z,2.03
2019-03-05T02:42:18.915Z,2.40
2019-03-05T02:45:07.800Z,2.07
2019-03-05T02:47:40.041Z,2.50
2019-03-05T02:50:28.416Z,2.33
2019-03-05T02:53:19.916Z,2.37
2019-03-05T02:56:08.449Z,2.13
2019-03-05T02:58:36.265Z,2.33
2019-03-05T03:01:24.598Z,2.20
2019-03-05T03:03:58.173Z,2.00
2019-03-05T03:06:29.149Z,1.77
2019-03-05T03:09:26.535Z,1.53
2019-03-05T03:11:55.706Z,1.80
2019-03-05T03:14:24.683Z,2.30
2019-03-05T03:16:53.800Z,1.57
2019-03-05T03:19:23.183Z,2.27
2019-03-05T03:21:52.257Z,1.90
2019-03-05T03:24:41.248Z,2.00
2019-03-05T03:27:10.440Z,2.00
2019-03-05T03:29:39.662Z,1.90
2019-03-05T03:32:10.886Z,1.73
2019-03-05T03:34:40.060Z,1.80
2019-03-05T03:37:09.139Z,1.60
2019-03-05T03:39:38.385Z,1.63
2019-03-05T03:42:15.637Z,1.97
2019-03-05T03:44:45.081Z,1.63
2019-03-05T03:47:13.951Z,1.40
2019-03-05T03:49:43.024Z,1.90
2019-03-05T03:52:12.271Z,1.33
2019-03-05T03:54:41.502Z,1.67
2019-03-05T03:57:10.460Z,1.43
2019-03-05T03:59:39.540Z,1.50
2019-03-05T04:02:08.403Z,1.83
2019-03-05T04:04:37.324Z,1.90
2019-03-05T04:07:06.819Z,1.47
2019-03-05T04:09:36.297Z,1.50
2019-03-05T04:12:06.180Z,1.90
2019-03-05T04:14:36.188Z,1.30
2019-03-05T04:17:05.315Z,1.60
2019-03-05T04:19:34.492Z,1.50
2019-03-05T04:22:03.809Z,1.67
2019-03-05T04:24:33.865Z,1.40
2019-03-05T04:27:02.908Z,1.70
2019-03-05T04:29:32.324Z,1.27
2019-03-05T04:32:01.677Z,1.83
2019-03-05T04:34:30.583Z,1.30
2019-03-05T04:37:00.084Z,1.33
2019-03-05T04:39:29.065Z,1.20
2019-03-05T04:41:57.964Z,1.50
2019-03-05T04:44:28.700Z,1.30
2019-03-05T04:46:57.990Z,1.40
2019-03-05T04:49:31.738Z,1.40
2019-03-05T04:52:05.874Z,1.33
2019-03-05T04:54:35.002Z,1.40
2019-03-05T04:57:04.313Z,1.23
2019-03-05T04:59:33.262Z,1.10
2019-03-05T05:02:02.282Z,1.70
2019-03-05T05:04:31.472Z,1.23
2019-03-05T05:07:00.360Z,1.53
2019-03-05T05:09:29.306Z,1.57
2019-03-05T05:11:58.727Z,1.43
2019-03-05T05:14:27.648Z,1.30
2019-03-05T05:16:57.060Z,1.60
2019-03-05T05:19:27.406Z,1.70
2019-03-05T05:21:56.387Z,1.07
2019-03-05T05:24:25.926Z,1.20
2019-03-05T05:26:54.940Z,1.37
2019-03-05T05:29:23.990Z,1.47
2019-03-05T05:31:53.260Z,1.47
2019-03-05T05:34:23.515Z,1.13
2019-03-05T05:36:52.427Z,1.37
2019-03-05T05:39:59.290Z,1.50
2019-03-05T05:42:28.399Z,1.33
2019-03-05T05:44:57.487Z,1.33
2019-03-05T05:47:26.569Z,1.30
2019-03-05T05:49:55.397Z,1.60
2019-03-05T05:52:24.336Z,1.20
2019-03-05T05:54:53.652Z,1.57
2019-03-05T05:57:22.737Z,1.20
2019-03-05T05:59:51.784Z,1.20
2019-03-05T06:02:21.324Z,1.30
2019-03-05T06:04:50.925Z,1.10
2019-03-05T06:07:20.043Z,1.20
2019-03-05T06:09:49.457Z,1.10
2019-03-05T06:12:18.502Z,1.47
2019-03-05T06:14:47.465Z,1.30
2019-03-05T06:17:16.431Z,1.00
2019-03-05T06:19:45.530Z,1.23
2019-03-05T06:22:17.588Z,1.07
2019-03-05T06:24:46.586Z,1.10
2019-03-05T06:27:16.554Z,1.07
2019-03-05T06:29:45.738Z,1.00
2019-03-05T06:32:17.318Z,1.40
2019-03-05T06:34:45.200Z,0.90
2019-03-05T06:37:14.359Z,0.93
2019-03-05T06:39:43.246Z,1.00
2019-03-05T06:42:12.441Z,1.20
2019-03-05T06:44:41.409Z,1.00
2019-03-05T06:47:10.468Z,1.20
2019-03-05T06:49:39.627Z,1.23
2019-03-05T06:52:11.689Z,1.40
2019-03-05T06:54:41.746Z,1.03
2019-03-05T06:57:10.817Z,1.50
2019-03-05T06:59:39.766Z,1.30
2019-03-05T07:02:08.573Z,1.13
2019-03-05T07:04:37.929Z,1.10
2019-03-05T07:07:07.067Z,1.20
2019-03-05T07:09:44.819Z,0.90
2019-03-05T07:12:34.951Z,1.33
2019-03-05T07:15:30.886Z,1.20
2019-03-05T07:18:08.999Z,1.20
2019-03-05T07:20:50.310Z,0.90
2019-03-05T07:23:34.389Z,1.40
2019-03-05T07:26:03.615Z,1.10
2019-03-05T07:28:32.679Z,1.03
2019-03-05T07:31:01.666Z,1.13
2019-03-05T07:33:30.759Z,0.90
2019-03-05T07:35:59.572Z,1.20
2019-03-05T07:38:28.522Z,1.10
2019-03-05T07:40:57.867Z,1.57
2019-03-05T07:43:36.158Z,0.80
2019-03-05T07:45:57.825Z,0.90
2019-03-05T07:48:29.526Z,1.53
2019-03-05T07:50:57.304Z,0.90
2019-03-05T07:53:26.554Z,1.83
2019-03-05T07:55:55.783Z,1.27
2019-03-05T07:58:24.636Z,1.20
2019-03-05T08:00:53.718Z,0.97
2019-03-05T08:03:22.951Z,0.90
2019-03-05T08:05:52.493Z,1.13
2019-03-05T08:08:57.767Z,1.13
2019-03-05T08:11:27.031Z,1.00
2019-03-05T08:14:05.549Z,1.00
2019-03-05T08:16:34.999Z,0.97
2019-03-05T08:19:04.261Z,0.97
2019-03-05T08:21:33.438Z,1.20
2019-03-05T08:24:02.420Z,1.27
2019-03-05T08:26:31.345Z,0.83
2019-03-05T08:29:02.809Z,1.20
2019-03-05T08:31:30.910Z,1.33
2019-03-05T08:33:59.728Z,1.50
2019-03-05T08:36:28.766Z,1.30
2019-03-05T08:38:58.033Z,1.07
2019-03-05T08:41:27.518Z,1.10
2019-03-05T08:43:56.758Z,1.10
2019-03-05T08:46:25.709Z,1.13
2019-03-05T08:48:55.343Z,1.00
2019-03-05T08:51:24.512Z,1.30
2019-03-05T08:53:53.624Z,1.10
2019-03-05T08:56:22.853Z,1.13
2019-03-05T08:58:52.394Z,1.17
2019-03-05T09:01:21.587Z,1.10
2019-03-05T09:03:50.827Z,1.30
2019-03-05T09:06:39.220Z,1.10
2019-03-05T09:09:09.986Z,1.00
2019-03-05T09:11:39.006Z,1.00
2019-03-05T09:14:08.312Z,0.87
2019-03-05T09:16:37.649Z,0.93
2019-03-05T09:19:06.549Z,1.00
2019-03-05T09:21:35.845Z,1.27
2019-03-05T09:24:05.127Z,0.90
2019-03-05T09:26:33.982Z,1.10
2019-03-05T09:29:03.119Z,1.20
2019-03-05T09:31:32.278Z,1.30
2019-03-05T09:34:01.054Z,1.00
2019-03-05T09:36:30.582Z,1.10
2019-03-05T09:39:00.151Z,1.70
2019-03-05T09:41:29.391Z,0.80
2019-03-05T09:43:59.253Z,0.90
2019-03-05T09:46:28.169Z,1.10
2019-03-05T09:48:57.032Z,1.03
2019-03-05T09:51:26.522Z,1.00
2019-03-05T09:53:55.613Z,1.60
2019-03-05T09:56:25.131Z,1.07
2019-03-05T09:58:54.488Z,1.10
2019-03-05T10:01:44.130Z,1.30
2019-03-05T10:04:13.209Z,1.03
2019-03-05T10:06:42.195Z,1.23
2019-03-05T10:09:11.440Z,1.13
2019-03-05T10:11:40.742Z,1.10
2019-03-05T10:14:09.598Z,1.30
2019-03-05T10:16:38.622Z,1.17
2019-03-05T10:19:08.670Z,1.30
2019-03-05T10:21:45.765Z,0.83
2019-03-05T10:24:10.695Z,0.97
2019-03-05T10:26:39.823Z,1.00
2019-03-05T10:29:08.807Z,1.50
2019-03-05T10:31:39.290Z,1.00
2019-03-05T10:34:08.250Z,1.07
2019-03-05T10:36:37.352Z,1.17
2019-03-05T10:39:10.149Z,0.90
2019-03-05T10:41:39.073Z,1.07
2019-03-05T10:44:09.287Z,1.00
2019-03-05T10:46:38.278Z,1.07
2019-03-05T10:49:07.357Z,1.30
2019-03-05T10:51:36.243Z,1.20
2019-03-05T10:54:06.711Z,1.50
2019-03-05T10:56:35.708Z,0.87
2019-03-05T10:59:05.490Z,1.10
2019-03-05T11:01:36.255Z,1.10
2019-03-05T11:04:09.039Z,1.00
2019-03-05T11:06:38.442Z,0.97
2019-03-05T11:09:08.363Z,1.10
2019-03-05T11:11:37.253Z,1.10
2019-03-05T11:14:06.792Z,0.90
2019-03-05T11:16:35.959Z,1.03
2019-03-05T11:19:05.357Z,1.27
2019-03-05T11:21:35.506Z,0.93
2019-03-05T11:24:04.559Z,1.37
2019-03-05T11:26:33.686Z,0.90
2019-03-05T11:29:03.094Z,1.10
2019-03-05T11:31:32.751Z,1.17
2019-03-05T11:34:01.599Z,1.20
2019-03-05T11:36:31.313Z,0.97
2019-03-05T11:39:00.171Z,0.83
2019-03-05T11:41:29.280Z,0.73
2019-03-05T11:43:58.389Z,1.23
2019-03-05T11:46:27.360Z,1.40
2019-03-05T11:48:56.684Z,1.33
2019-03-05T11:51:25.749Z,1.23
2019-03-05T11:53:54.614Z,1.10
2019-03-05T11:56:23.792Z,1.00
2019-03-05T11:58:52.729Z,1.20
2019-03-05T12:01:23.657Z,1.30
2019-03-05T12:03:53.500Z,1.10
2019-03-05T12:06:24.123Z,1.30
2019-03-05T12:08:52.960Z,1.20
2019-03-05T12:11:24.533Z,1.20
2019-03-05T12:13:53.448Z,1.23
2019-03-05T12:16:23.483Z,1.30
2019-03-05T12:18:53.042Z,1.50
2019-03-05T12:21:22.030Z,1.10
2019-03-05T12:23:51.063Z,1.40
2019-03-05T12:26:20.790Z,1.53
2019-03-05T12:28:49.858Z,1.20
2019-03-05T12:31:18.917Z,1.30
2019-03-05T12:33:48.155Z,1.00
2019-03-05T12:36:17.545Z,0.97
2019-03-05T12:38:47.205Z,1.30
2019-03-05T12:41:17.092Z,1.30
2019-03-05T12:43:46.674Z,1.17
2019-03-05T12:46:15.616Z,1.00
2019-03-05T12:48:45.513Z,1.37
2019-03-05T12:51:14.900Z,1.17
2019-03-05T12:53:43.814Z,1.17
2019-03-05T12:56:23.082Z,1.20
2019-03-05T12:58:43.654Z,0.97
2019-03-05T13:01:12.765Z,1.27
2019-03-05T13:03:42.481Z,1.10
2019-03-05T13:06:11.441Z,1.37
2019-03-05T13:08:40.902Z,1.27
2019-03-05T13:11:12.980Z,1.07
2019-03-05T13:13:47.496Z,1.13
2019-03-05T13:16:15.963Z,1.03
2019-03-05T13:18:45.399Z,1.43
2019-03-05T13:21:14.797Z,1.10
2019-03-05T13:23:44.539Z,1.03
2019-03-05T13:26:13.364Z,1.00
2019-03-05T13:28:42.241Z,1.03
2019-03-05T13:31:14.629Z,0.97
2019-03-05T13:33:43.443Z,1.10
2019-03-05T13:36:13.458Z,1.00
2019-03-05T13:38:45.391Z,1.30
2019-03-05T13:41:15.530Z,1.10
2019-03-05T13:43:45.714Z,1.17
2019-03-05T13:46:14.924Z,1.00
2019-03-05T13:49:01.981Z,1.10
2019-03-05T13:52:09.150Z,1.13
2019-03-05T13:55:01.876Z,1.20
2019-03-05T13:57:57.593Z,1.00
2019-03-05T14:00:26.913Z,1.23
2019-03-05T14:03:02.035Z,1.37
2019-03-05T14:05:41.826Z,1.40
2019-03-05T14:08:31.609Z,0.90
2019-03-05T14:11:00.687Z,0.93
2019-03-05T14:13:32.716Z,0.60
2019-03-05T14:16:02.105Z,1.10
2019-03-05T14:18:32.439Z,0.90
2019-03-05T14:21:01.356Z,0.90
2019-03-05T14:23:30.491Z,0.97
2019-03-05T14:25:59.522Z,1.00
2019-03-05T14:28:28.593Z,1.10
2019-03-05T14:30:58.394Z,0.93
2019-03-05T14:33:27.963Z,1.00
2019-03-05T14:35:59.676Z,1.30
2019-03-05T14:38:28.977Z,1.10
2019-03-05T14:40:58.102Z,1.13
2019-03-05T14:43:27.670Z,1.17
2019-03-05T14:45:56.947Z,1.43
2019-03-05T14:48:30.159Z,1.20
2019-03-05T14:50:58.970Z,0.97
2019-03-05T14:53:28.266Z,1.00
2019-03-05T14:55:57.499Z,1.40
2019-03-05T14:58:26.866Z,1.00
2019-03-05T15:00:56.066Z,1.23
2019-03-05T15:03:25.935Z,0.80
2019-03-05T15:05:55.003Z,1.37
2019-03-05T15:08:24.473Z,0.83
2019-03-05T15:11:13.220Z,1.07
2019-03-05T15:13:42.519Z,1.50
2019-03-05T15:16:14.921Z,1.40
2019-03-05T15:18:43.890Z,1.17
2019-03-05T15:21:13.147Z,1.17
2019-03-05T15:23:42.380Z,1.10
2019-03-05T15:26:11.567Z,1.20
2019-03-05T15:28:40.720Z,1.67
2019-03-05T15:31:16.842Z,1.10
2019-03-05T15:33:42.447Z,1.10
2019-03-05T15:36:23.228Z,1.07
2019-03-05T15:38:42.886Z,1.50
2019-03-05T15:41:12.260Z,1.17
2019-03-05T15:43:41.823Z,1.20
2019-03-05T15:46:11.337Z,1.27
2019-03-05T15:48:40.575Z,1.00
2019-03-05T15:51:09.843Z,1.10
2019-03-05T15:53:40.022Z,1.03
2019-03-05T15:56:09.200Z,1.00
2019-03-05T15:58:39.383Z,1.00
2019-03-05T16:01:09.921Z,1.27
2019-03-05T16:03:42.266Z,1.10
2019-03-05T16:06:14.028Z,1.23
2019-03-05T16:08:43.929Z,1.17
2019-03-05T16:11:14.681Z,0.80
2019-03-05T16:13:45.778Z,1.00
2019-03-05T16:16:18.454Z,1.10
2019-03-05T16:18:47.497Z,1.13
2019-03-05T16:21:16.705Z,1.00
2019-03-05T16:23:45.756Z,1.27
2019-03-05T16:26:14.770Z,0.93
2019-03-05T16:28:44.998Z,1.00
2019-03-05T16:31:17.244Z,0.80
2019-03-05T16:33:57.088Z,0.90
2019-03-05T16:36:29.185Z,1.30
2019-03-05T16:39:01.986Z,1.27
2019-03-05T16:41:53.316Z,0.73
2019-03-05T16:44:40.513Z,1.00
2019-03-05T16:47:21.187Z,0.90
2019-03-05T16:50:01.308Z,1.13
2019-03-05T16:52:40.728Z,1.10
2019-03-05T16:55:30.665Z,1.30
2019-03-05T16:58:01.642Z,1.20
2019-03-05T17:00:49.423Z,1.00
2019-03-05T17:03:20.705Z,1.07
2019-03-05T17:05:51.650Z,1.07
2019-03-05T17:08:24.923Z,1.30
2019-03-05T17:11:10.621Z,1.50
2019-03-05T17:13:40.101Z,1.20
2019-03-05T17:16:30.230Z,1.17
2019-03-05T17:18:59.649Z,1.00
2019-03-05T17:21:30.758Z,1.10
2019-03-05T17:24:00.584Z,1.57
2019-03-05T17:26:31.204Z,1.10
2019-03-05T17:29:00.271Z,1.20
2019-03-05T17:31:29.488Z,1.20
2019-03-05T17:33:58.590Z,1.10
2019-03-05T17:36:28.032Z,1.20
2019-03-05T17:38:57.141Z,1.30
2019-03-05T17:41:26.556Z,1.33
2019-03-05T17:44:14.634Z,1.10
2019-03-05T17:46:52.236Z,1.40
2019-03-05T17:49:21.596Z,1.00
2019-03-05T17:51:50.726Z,1.10
2019-03-05T17:54:20.663Z,1.27
2019-03-05T17:56:49.804Z,1.40
2019-03-05T17:59:18.934Z,1.43
2019-03-05T18:01:47.981Z,1.07
2019-03-05T18:04:17.176Z,1.10
2019-03-05T18:06:46.149Z,1.20
2019-03-05T18:09:21.728Z,1.20
2019-03-05T18:11:53.271Z,1.13
2019-03-05T18:14:22.441Z,0.80
2019-03-05T18:16:51.419Z,1.27
2019-03-05T18:19:20.662Z,1.20
2019-03-05T18:21:50.011Z,1.23
2019-03-05T18:24:19.560Z,1.40
2019-03-05T18:26:48.454Z,1.37
2019-03-05T18:29:18.262Z,1.27
2019-03-05T18:31:48.465Z,0.90
2019-03-05T18:34:18.558Z,1.30
2019-03-05T18:36:49.288Z,1.10
2019-03-05T18:39:19.993Z,1.10
2019-03-05T18:41:50.207Z,1.23
2019-03-05T18:44:19.267Z,1.20
2019-03-05T18:46:49.532Z,1.10
2019-03-05T18:49:19.202Z,0.93
2019-03-05T18:51:48.177Z,1.47
2019-03-05T18:54:17.454Z,1.40
2019-03-05T18:56:48.923Z,1.27
2019-03-05T18:59:18.478Z,1.00
2019-03-05T19:01:48.409Z,1.17
2019-03-05T19:04:17.585Z,1.60
2019-03-05T19:06:53.662Z,1.50
2019-03-05T19:09:22.777Z,0.93
2019-03-05T19:11:52.499Z,1.10
2019-03-05T19:14:21.866Z,1.00
2019-03-05T19:16:51.111Z,1.40
2019-03-05T19:19:20.306Z,1.83
2019-03-05T19:21:49.639Z,1.30
2019-03-05T19:24:18.998Z,1.13
2019-03-05T19:26:47.959Z,1.30
2019-03-05T19:29:19.006Z,1.13
2019-03-05T19:31:49.129Z,1.00
2019-03-05T19:34:18.258Z,1.00
2019-03-05T19:36:47.486Z,1.20
2019-03-05T19:39:16.794Z,1.00
2019-03-05T19:41:45.782Z,1.00
2019-03-05T19:44:14.637Z,1.23
2019-03-05T19:46:43.919Z,1.20
2019-03-05T19:49:13.943Z,1.20
2019-03-05T19:51:43.725Z,1.13
2019-03-05T19:54:12.666Z,1.33
2019-03-05T19:56:42.132Z,1.03
2019-03-05T19:59:11.255Z,1.10
2019-03-05T20:01:40.320Z,0.90
2019-03-05T20:04:11.970Z,1.13
2019-03-05T20:06:40.708Z,0.90
2019-03-05T20:09:13.388Z,1.10
2019-03-05T20:11:42.274Z,1.00
2019-03-05T20:14:12.930Z,1.13
2019-03-05T20:16:41.921Z,1.30
2019-03-05T20:19:11.332Z,1.30
2019-03-05T20:21:41.818Z,1.23
2019-03-05T20:24:10.920Z,1.60
2019-03-05T20:26:40.602Z,1.10
2019-03-05T20:29:10.824Z,1.30
2019-03-05T20:31:40.292Z,1.10
2019-03-05T20:34:10.688Z,1.30
2019-03-05T20:36:39.835Z,1.17
2019-03-05T20:39:08.777Z,1.10
2019-03-05T20:41:40.655Z,1.20
2019-03-05T20:44:09.692Z,1.30
2019-03-05T20:46:41.364Z,1.10
2019-03-05T20:49:10.521Z,1.30
2019-03-05T20:51:39.607Z,1.10
2019-03-05T20:54:09.159Z,1.47
2019-03-05T20:56:38.236Z,1.37
2019-03-05T20:59:07.786Z,1.23
2019-03-05T21:01:37.317Z,1.30
2019-03-05T21:04:06.763Z,1.73
2019-03-05T21:06:35.611Z,1.20
2019-03-05T21:09:06.291Z,1.10
2019-03-05T21:11:35.410Z,1.27
2019-03-05T21:14:04.992Z,1.23
2019-03-05T21:16:34.287Z,1.13
2019-03-05T21:19:03.848Z,1.13
2019-03-05T21:21:33.412Z,1.60
2019-03-05T21:24:05.786Z,1.20
2019-03-05T21:26:34.376Z,1.40
2019-03-05T21:29:03.480Z,1.20
2019-03-05T21:31:33.069Z,1.30
2019-03-05T21:34:02.132Z,1.17
2019-03-05T21:36:30.998Z,1.00
2019-03-05T21:39:02.020Z,1.70
2019-03-05T21:41:31.006Z,1.40
2019-03-05T21:44:05.550Z,1.37
2019-03-05T21:46:35.638Z,1.33
2019-03-05T21:49:04.699Z,1.43
2019-03-05T21:51:34.094Z,1.00
2019-03-05T21:54:03.541Z,1.20
2019-03-05T21:56:32.490Z,1.43
2019-03-05T21:59:01.531Z,1.17
2019-03-05T22:01:52.385Z,1.33
2019-03-05T22:04:25.627Z,1.40
2019-03-05T22:06:54.516Z,1.40
2019-03-05T22:09:23.645Z,1.13
2019-03-05T22:12:06.798Z,1.33
2019-03-05T22:14:38.011Z,1.37
2019-03-05T22:17:07.288Z,1.60
2019-03-05T22:19:40.132Z,1.30
2019-03-05T22:22:09.102Z,1.40
2019-03-05T22:24:38.095Z,1.20
2019-03-05T22:27:23.128Z,1.30
2019-03-05T22:30:14.638Z,1.40
2019-03-05T22:32:46.294Z,1.40
2019-03-05T22:35:16.071Z,1.17
2019-03-05T22:40:31.092Z,1.40
2019-03-05T22:43:00.813Z,1.20
2019-03-05T22:45:32.091Z,1.43
2019-03-05T22:48:01.167Z,1.10
2019-03-05T22:50:50.066Z,1.33
2019-03-05T22:53:19.317Z,1.37
2019-03-05T22:56:08.056Z,1.10
2019-03-05T22:58:51.038Z,1.50
2019-03-05T23:01:52.986Z,1.27
2019-03-05T23:04:24.908Z,1.60
2019-03-05T23:07:25.455Z,1.57
2019-03-05T23:10:09.082Z,1.30
2019-03-05T23:12:38.740Z,1.30
2019-03-05T23:15:10.718Z,1.73
2019-03-05T23:17:39.762Z,1.37
2019-03-05T23:20:11.192Z,1.50
2019-03-05T23:22:40.155Z,1.13
2019-03-05T23:26:10.759Z,1.50
2019-03-05T23:28:55.324Z,1.30
2019-03-05T23:31:24.779Z,1.50
2019-03-05T23:33:53.694Z,1.13
2019-03-05T23:36:22.897Z,1.40
2019-03-05T23:39:05.825Z,1.50
2019-03-05T23:41:34.936Z,1.37
2019-03-05T23:44:04.303Z,1.27
2019-03-05T23:46:35.828Z,1.47
2019-03-05T23:49:27.907Z,1.83
2019-03-05T23:52:07.077Z,1.30
2019-03-05T23:54:36.740Z,1.33
2019-03-05T23:57:05.648Z,1.23
2019-03-05T23:59:54.633Z,1.60
